sensor_id;sensor_type;location;lat;lon;timestamp;P1;durP1;ratioP1;P2;durP2;ratioP2
41556;SDS011;27720;51.992;5.890;2023-07-24T00:00:32;1.50;;;0.50;;
41556;SDS011;27720;51.992;5.890;2023-07-24T00:03:00;0.82;;;0.52;;
41556;SDS011;27720;51.992;5.890;2023-07-24T00:05:26;1.10;;;0.47;;
41556;SDS011;27720;51.992;5.890;2023-07-24T00:07:52;0.70;;;0.43;;
41556;SDS011;27720;51.992;5.890;2023-07-24T00:10:17;1.60;;;0.70;;
41556;SDS011;27720;51.992;5.890;2023-07-24T00:12:43;0.73;;;0.50;;
41556;SDS011;27720;51.992;5.890;2023-07-24T00:15:09;1.23;;;0.65;;
41556;SDS011;27720;51.992;5.890;2023-07-24T00:17:35;1.80;;;0.63;;
41556;SDS011;27720;51.992;5.890;2023-07-24T00:20:00;2.00;;;0.88;;
41556;SDS011;27720;51.992;5.890;2023-07-24T00:22:26;1.33;;;0.63;;
41556;SDS011;27720;51.992;5.890;2023-07-24T00:24:52;0.68;;;0.40;;
41556;SDS011;27720;51.992;5.890;2023-07-24T00:27:17;0.82;;;0.50;;
41556;SDS011;27720;51.992;5.890;2023-07-24T00:29:44;1.50;;;0.45;;
41556;SDS011;27720;51.992;5.890;2023-07-24T00:32:10;1.95;;;0.93;;
41556;SDS011;27720;51.992;5.890;2023-07-24T00:34:36;1.33;;;0.57;;
41556;SDS011;27720;51.992;5.890;2023-07-24T00:37:02;1.00;;;0.60;;
41556;SDS011;27720;51.992;5.890;2023-07-24T00:39:28;0.63;;;0.40;;
41556;SDS011;27720;51.992;5.890;2023-07-24T00:41:56;1.23;;;0.50;;
41556;SDS011;27720;51.992;5.890;2023-07-24T00:44:21;1.08;;;0.77;;
41556;SDS011;27720;51.992;5.890;2023-07-24T00:46:47;1.15;;;0.57;;
41556;SDS011;27720;51.992;5.890;2023-07-24T00:49:13;1.63;;;0.70;;
41556;SDS011;27720;51.992;5.890;2023-07-24T00:51:39;1.00;;;0.65;;
41556;SDS011;27720;51.992;5.890;2023-07-24T00:54:08;0.98;;;0.50;;
41556;SDS011;27720;51.992;5.890;2023-07-24T00:56:33;1.13;;;0.65;;
41556;SDS011;27720;51.992;5.890;2023-07-24T00:59:00;0.90;;;0.50;;
41556;SDS011;27720;51.992;5.890;2023-07-24T01:01:26;1.30;;;0.75;;
41556;SDS011;27720;51.992;5.890;2023-07-24T01:03:53;1.33;;;0.88;;
41556;SDS011;27720;51.992;5.890;2023-07-24T01:06:21;1.42;;;0.90;;
41556;SDS011;27720;51.992;5.890;2023-07-24T01:08:47;0.70;;;0.40;;
41556;SDS011;27720;51.992;5.890;2023-07-24T01:11:18;1.17;;;0.63;;
41556;SDS011;27720;51.992;5.890;2023-07-24T01:16:40;1.83;;;0.65;;
41556;SDS011;27720;51.992;5.890;2023-07-24T01:22:32;2.08;;;0.52;;
41556;SDS011;27720;51.992;5.890;2023-07-24T01:27:54;0.80;;;0.40;;
41556;SDS011;27720;51.992;5.890;2023-07-24T01:30:20;2.10;;;0.60;;
41556;SDS011;27720;51.992;5.890;2023-07-24T01:32:46;1.83;;;0.90;;
41556;SDS011;27720;51.992;5.890;2023-07-24T01:35:15;0.93;;;0.70;;
41556;SDS011;27720;51.992;5.890;2023-07-24T01:37:41;1.85;;;0.90;;
41556;SDS011;27720;51.992;5.890;2023-07-24T01:40:08;3.08;;;0.85;;
41556;SDS011;27720;51.992;5.890;2023-07-24T01:42:36;2.45;;;1.13;;
41556;SDS011;27720;51.992;5.890;2023-07-24T01:45:02;1.15;;;0.75;;
41556;SDS011;27720;51.992;5.890;2023-07-24T01:47:29;1.30;;;0.80;;
41556;SDS011;27720;51.992;5.890;2023-07-24T01:49:55;1.45;;;0.88;;
41556;SDS011;27720;51.992;5.890;2023-07-24T01:52:21;1.83;;;0.82;;
41556;SDS011;27720;51.992;5.890;2023-07-24T01:54:47;1.40;;;0.75;;
41556;SDS011;27720;51.992;5.890;2023-07-24T01:57:13;2.22;;;1.00;;
41556;SDS011;27720;51.992;5.890;2023-07-24T01:59:39;1.67;;;0.90;;
41556;SDS011;27720;51.992;5.890;2023-07-24T02:02:05;1.98;;;1.10;;
41556;SDS011;27720;51.992;5.890;2023-07-24T02:04:31;2.33;;;1.00;;
41556;SDS011;27720;51.992;5.890;2023-07-24T02:06:56;2.00;;;0.90;;
41556;SDS011;27720;51.992;5.890;2023-07-24T02:09:22;2.28;;;0.85;;
41556;SDS011;27720;51.992;5.890;2023-07-24T02:11:48;1.52;;;0.90;;
41556;SDS011;27720;51.992;5.890;2023-07-24T02:14:14;1.38;;;0.88;;
41556;SDS011;27720;51.992;5.890;2023-07-24T02:16:42;2.05;;;1.02;;
41556;SDS011;27720;51.992;5.890;2023-07-24T02:19:08;2.10;;;0.90;;
41556;SDS011;27720;51.992;5.890;2023-07-24T02:21:34;2.22;;;1.02;;
41556;SDS011;27720;51.992;5.890;2023-07-24T02:24:00;1.67;;;1.10;;
41556;SDS011;27720;51.992;5.890;2023-07-24T02:26:25;1.45;;;0.85;;
41556;SDS011;27720;51.992;5.890;2023-07-24T02:28:51;1.92;;;1.10;;
41556;SDS011;27720;51.992;5.890;2023-07-24T02:31:20;1.95;;;1.27;;
41556;SDS011;27720;51.992;5.890;2023-07-24T02:33:46;1.40;;;0.90;;
41556;SDS011;27720;51.992;5.890;2023-07-24T02:36:12;1.52;;;0.90;;
41556;SDS011;27720;51.992;5.890;2023-07-24T02:38:40;1.92;;;0.90;;
41556;SDS011;27720;51.992;5.890;2023-07-24T02:41:06;1.95;;;1.10;;
41556;SDS011;27720;51.992;5.890;2023-07-24T02:43:32;1.77;;;0.93;;
41556;SDS011;27720;51.992;5.890;2023-07-24T02:46:00;2.45;;;1.00;;
41556;SDS011;27720;51.992;5.890;2023-07-24T02:48:27;2.15;;;1.20;;
41556;SDS011;27720;51.992;5.890;2023-07-24T02:50:53;1.52;;;1.13;;
41556;SDS011;27720;51.992;5.890;2023-07-24T02:53:19;1.65;;;0.95;;
41556;SDS011;27720;51.992;5.890;2023-07-24T02:55:45;1.73;;;0.93;;
41556;SDS011;27720;51.992;5.890;2023-07-24T02:58:12;1.10;;;0.80;;
41556;SDS011;27720;51.992;5.890;2023-07-24T03:00:38;1.92;;;1.00;;
41556;SDS011;27720;51.992;5.890;2023-07-24T03:03:04;3.00;;;0.80;;
41556;SDS011;27720;51.992;5.890;2023-07-24T03:05:30;1.17;;;0.75;;
41556;SDS011;27720;51.992;5.890;2023-07-24T03:07:56;1.10;;;0.60;;
41556;SDS011;27720;51.992;5.890;2023-07-24T03:10:22;1.80;;;1.00;;
41556;SDS011;27720;51.992;5.890;2023-07-24T03:12:48;1.17;;;0.80;;
41556;SDS011;27720;51.992;5.890;2023-07-24T03:15:14;1.58;;;0.90;;
41556;SDS011;27720;51.992;5.890;2023-07-24T03:17:39;1.85;;;0.80;;
41556;SDS011;27720;51.992;5.890;2023-07-24T03:20:13;1.50;;;0.82;;
41556;SDS011;27720;51.992;5.890;2023-07-24T03:22:41;1.10;;;0.80;;
41556;SDS011;27720;51.992;5.890;2023-07-24T03:25:07;2.47;;;1.13;;
41556;SDS011;27720;51.992;5.890;2023-07-24T03:27:33;2.13;;;1.27;;
41556;SDS011;27720;51.992;5.890;2023-07-24T03:29:59;1.75;;;0.90;;
41556;SDS011;27720;51.992;5.890;2023-07-24T03:32:25;2.33;;;1.50;;
41556;SDS011;27720;51.992;5.890;2023-07-24T03:34:51;1.70;;;1.00;;
41556;SDS011;27720;51.992;5.890;2023-07-24T03:37:17;2.50;;;1.15;;
41556;SDS011;27720;51.992;5.890;2023-07-24T03:39:43;1.80;;;0.93;;
41556;SDS011;27720;51.992;5.890;2023-07-24T03:42:11;2.55;;;0.90;;
41556;SDS011;27720;51.992;5.890;2023-07-24T03:44:50;3.50;;;1.02;;
41556;SDS011;27720;51.992;5.890;2023-07-24T03:47:16;2.08;;;1.20;;
41556;SDS011;27720;51.992;5.890;2023-07-24T03:49:42;3.70;;;1.70;;
41556;SDS011;27720;51.992;5.890;2023-07-24T03:52:07;2.47;;;1.52;;
41556;SDS011;27720;51.992;5.890;2023-07-24T03:54:33;3.22;;;1.50;;
41556;SDS011;27720;51.992;5.890;2023-07-24T03:56:59;2.83;;;1.33;;
41556;SDS011;27720;51.992;5.890;2023-07-24T03:59:25;2.05;;;1.08;;
41556;SDS011;27720;51.992;5.890;2023-07-24T04:01:51;1.48;;;0.90;;
41556;SDS011;27720;51.992;5.890;2023-07-24T04:04:16;2.13;;;1.15;;
41556;SDS011;27720;51.992;5.890;2023-07-24T04:06:42;3.20;;;1.73;;
41556;SDS011;27720;51.992;5.890;2023-07-24T04:09:08;1.58;;;1.05;;
41556;SDS011;27720;51.992;5.890;2023-07-24T04:11:35;2.78;;;1.23;;
41556;SDS011;27720;51.992;5.890;2023-07-24T04:14:03;2.83;;;1.90;;
41556;SDS011;27720;51.992;5.890;2023-07-24T04:16:29;2.25;;;1.17;;
41556;SDS011;27720;51.992;5.890;2023-07-24T04:18:54;2.45;;;1.23;;
41556;SDS011;27720;51.992;5.890;2023-07-24T04:21:20;2.53;;;1.40;;
41556;SDS011;27720;51.992;5.890;2023-07-24T04:23:47;1.75;;;1.13;;
41556;SDS011;27720;51.992;5.890;2023-07-24T04:26:13;2.03;;;1.25;;
41556;SDS011;27720;51.992;5.890;2023-07-24T04:28:42;2.67;;;1.30;;
41556;SDS011;27720;51.992;5.890;2023-07-24T04:31:07;3.03;;;1.58;;
41556;SDS011;27720;51.992;5.890;2023-07-24T04:33:33;5.45;;;2.40;;
41556;SDS011;27720;51.992;5.890;2023-07-24T04:35:59;2.85;;;1.83;;
41556;SDS011;27720;51.992;5.890;2023-07-24T04:38:25;3.47;;;1.95;;
41556;SDS011;27720;51.992;5.890;2023-07-24T04:40:50;2.78;;;1.60;;
41556;SDS011;27720;51.992;5.890;2023-07-24T04:43:16;2.80;;;1.42;;
41556;SDS011;27720;51.992;5.890;2023-07-24T04:45:42;2.17;;;1.45;;
41556;SDS011;27720;51.992;5.890;2023-07-24T04:48:07;2.42;;;1.40;;
41556;SDS011;27720;51.992;5.890;2023-07-24T04:50:33;5.57;;;1.73;;
41556;SDS011;27720;51.992;5.890;2023-07-24T04:52:59;2.70;;;1.63;;
41556;SDS011;27720;51.992;5.890;2023-07-24T04:55:25;2.35;;;1.15;;
41556;SDS011;27720;51.992;5.890;2023-07-24T04:57:50;2.47;;;1.30;;
41556;SDS011;27720;51.992;5.890;2023-07-24T05:00:16;2.08;;;1.33;;
41556;SDS011;27720;51.992;5.890;2023-07-24T05:02:42;3.85;;;1.40;;
41556;SDS011;27720;51.992;5.890;2023-07-24T05:05:08;2.50;;;1.38;;
41556;SDS011;27720;51.992;5.890;2023-07-24T05:07:34;1.52;;;1.02;;
41556;SDS011;27720;51.992;5.890;2023-07-24T05:10:03;1.88;;;1.40;;
41556;SDS011;27720;51.992;5.890;2023-07-24T05:12:29;2.70;;;1.23;;
41556;SDS011;27720;51.992;5.890;2023-07-24T05:14:55;2.22;;;1.33;;
41556;SDS011;27720;51.992;5.890;2023-07-24T05:17:20;2.30;;;1.45;;
41556;SDS011;27720;51.992;5.890;2023-07-24T05:19:46;2.45;;;1.30;;
41556;SDS011;27720;51.992;5.890;2023-07-24T05:22:12;4.15;;;2.40;;
41556;SDS011;27720;51.992;5.890;2023-07-24T05:24:38;4.80;;;2.72;;
41556;SDS011;27720;51.992;5.890;2023-07-24T05:27:04;3.50;;;2.33;;
41556;SDS011;27720;51.992;5.890;2023-07-24T05:29:30;2.80;;;1.70;;
41556;SDS011;27720;51.992;5.890;2023-07-24T05:31:56;2.88;;;1.80;;
41556;SDS011;27720;51.992;5.890;2023-07-24T05:34:22;3.10;;;2.00;;
41556;SDS011;27720;51.992;5.890;2023-07-24T05:36:48;3.33;;;1.90;;
41556;SDS011;27720;51.992;5.890;2023-07-24T05:39:14;4.25;;;2.42;;
41556;SDS011;27720;51.992;5.890;2023-07-24T05:41:39;2.78;;;1.85;;
41556;SDS011;27720;51.992;5.890;2023-07-24T05:44:05;2.72;;;1.92;;
41556;SDS011;27720;51.992;5.890;2023-07-24T05:46:31;3.97;;;2.30;;
41556;SDS011;27720;51.992;5.890;2023-07-24T05:48:56;4.25;;;2.55;;
41556;SDS011;27720;51.992;5.890;2023-07-24T05:51:22;3.05;;;1.70;;
41556;SDS011;27720;51.992;5.890;2023-07-24T05:53:48;3.53;;;2.00;;
41556;SDS011;27720;51.992;5.890;2023-07-24T05:56:14;3.97;;;2.55;;
41556;SDS011;27720;51.992;5.890;2023-07-24T05:58:40;4.15;;;2.47;;
41556;SDS011;27720;51.992;5.890;2023-07-24T06:01:05;3.10;;;1.88;;
41556;SDS011;27720;51.992;5.890;2023-07-24T06:03:35;3.67;;;2.45;;
41556;SDS011;27720;51.992;5.890;2023-07-24T06:06:01;5.72;;;2.58;;
41556;SDS011;27720;51.992;5.890;2023-07-24T06:08:27;4.43;;;2.50;;
41556;SDS011;27720;51.992;5.890;2023-07-24T06:10:53;4.93;;;2.80;;
41556;SDS011;27720;51.992;5.890;2023-07-24T06:13:19;5.30;;;2.83;;
41556;SDS011;27720;51.992;5.890;2023-07-24T06:15:48;4.78;;;2.38;;
41556;SDS011;27720;51.992;5.890;2023-07-24T06:18:14;4.37;;;2.30;;
41556;SDS011;27720;51.992;5.890;2023-07-24T06:20:40;3.05;;;1.80;;
41556;SDS011;27720;51.992;5.890;2023-07-24T06:23:06;4.05;;;2.38;;
41556;SDS011;27720;51.992;5.890;2023-07-24T06:25:32;4.95;;;2.88;;
41556;SDS011;27720;51.992;5.890;2023-07-24T06:27:58;3.78;;;2.00;;
41556;SDS011;27720;51.992;5.890;2023-07-24T06:30:23;3.92;;;2.28;;
41556;SDS011;27720;51.992;5.890;2023-07-24T10:27:39;5.78;;;3.92;;
41556;SDS011;27720;51.992;5.890;2023-07-24T10:30:09;4.97;;;3.00;;
41556;SDS011;27720;51.992;5.890;2023-07-24T10:32:44;6.05;;;3.08;;
41556;SDS011;27720;51.992;5.890;2023-07-24T10:35:14;6.20;;;4.30;;
41556;SDS011;27720;51.992;5.890;2023-07-24T10:37:41;5.30;;;3.42;;
41556;SDS011;27720;51.992;5.890;2023-07-24T10:40:07;5.95;;;3.00;;
41556;SDS011;27720;51.992;5.890;2023-07-24T10:42:44;5.22;;;3.33;;
41556;SDS011;27720;51.992;5.890;2023-07-24T10:45:10;5.00;;;3.60;;
41556;SDS011;27720;51.992;5.890;2023-07-24T10:47:36;5.80;;;3.20;;
41556;SDS011;27720;51.992;5.890;2023-07-24T10:50:02;4.38;;;2.78;;
41556;SDS011;27720;51.992;5.890;2023-07-24T10:52:31;5.45;;;3.15;;
41556;SDS011;27720;51.992;5.890;2023-07-24T10:55:04;5.68;;;3.30;;
41556;SDS011;27720;51.992;5.890;2023-07-24T10:57:31;6.22;;;3.88;;
41556;SDS011;27720;51.992;5.890;2023-07-24T10:59:57;7.53;;;3.70;;
41556;SDS011;27720;51.992;5.890;2023-07-24T11:02:24;5.38;;;3.13;;
41556;SDS011;27720;51.992;5.890;2023-07-24T11:04:50;4.63;;;2.95;;
41556;SDS011;27720;51.992;5.890;2023-07-24T11:07:16;5.00;;;2.97;;
41556;SDS011;27720;51.992;5.890;2023-07-24T11:09:42;3.58;;;2.60;;
41556;SDS011;27720;51.992;5.890;2023-07-24T11:12:14;4.55;;;2.80;;
41556;SDS011;27720;51.992;5.890;2023-07-24T11:14:50;5.03;;;2.97;;
41556;SDS011;27720;51.992;5.890;2023-07-24T11:17:19;6.28;;;2.83;;
41556;SDS011;27720;51.992;5.890;2023-07-24T11:19:45;5.45;;;3.60;;
41556;SDS011;27720;51.992;5.890;2023-07-24T11:22:10;4.18;;;2.55;;
41556;SDS011;27720;51.992;5.890;2023-07-24T11:24:46;5.20;;;2.45;;
41556;SDS011;27720;51.992;5.890;2023-07-24T11:27:12;4.65;;;2.70;;
41556;SDS011;27720;51.992;5.890;2023-07-24T11:29:40;5.82;;;2.85;;
41556;SDS011;27720;51.992;5.890;2023-07-24T11:32:06;4.70;;;2.90;;
41556;SDS011;27720;51.992;5.890;2023-07-24T11:34:32;5.63;;;3.88;;
41556;SDS011;27720;51.992;5.890;2023-07-24T11:36:58;4.40;;;2.72;;
41556;SDS011;27720;51.992;5.890;2023-07-24T11:39:24;4.20;;;2.47;;
41556;SDS011;27720;51.992;5.890;2023-07-24T11:41:50;5.07;;;2.45;;
41556;SDS011;27720;51.992;5.890;2023-07-24T11:44:23;4.75;;;2.70;;
41556;SDS011;27720;51.992;5.890;2023-07-24T11:46:52;4.47;;;2.80;;
41556;SDS011;27720;51.992;5.890;2023-07-24T11:49:26;4.10;;;2.50;;
41556;SDS011;27720;51.992;5.890;2023-07-24T11:51:52;4.45;;;2.90;;
41556;SDS011;27720;51.992;5.890;2023-07-24T11:54:18;4.78;;;2.58;;
41556;SDS011;27720;51.992;5.890;2023-07-24T11:56:44;3.78;;;2.15;;
41556;SDS011;27720;51.992;5.890;2023-07-24T11:59:13;5.03;;;3.17;;
41556;SDS011;27720;51.992;5.890;2023-07-24T12:01:39;5.15;;;2.92;;
41556;SDS011;27720;51.992;5.890;2023-07-24T12:04:06;5.47;;;3.30;;
41556;SDS011;27720;51.992;5.890;2023-07-24T12:06:31;6.13;;;3.40;;
41556;SDS011;27720;51.992;5.890;2023-07-24T12:09:02;4.10;;;2.58;;
41556;SDS011;27720;51.992;5.890;2023-07-24T12:11:30;3.28;;;2.38;;
41556;SDS011;27720;51.992;5.890;2023-07-24T12:13:56;5.40;;;2.85;;
41556;SDS011;27720;51.992;5.890;2023-07-24T12:16:22;6.30;;;3.05;;
41556;SDS011;27720;51.992;5.890;2023-07-24T12:18:48;5.50;;;2.95;;
41556;SDS011;27720;51.992;5.890;2023-07-24T12:21:14;6.03;;;2.70;;
41556;SDS011;27720;51.992;5.890;2023-07-24T12:23:39;5.35;;;3.10;;
41556;SDS011;27720;51.992;5.890;2023-07-24T12:26:05;4.35;;;2.72;;
41556;SDS011;27720;51.992;5.890;2023-07-24T12:28:32;5.70;;;2.13;;
41556;SDS011;27720;51.992;5.890;2023-07-24T12:30:58;5.57;;;2.72;;
41556;SDS011;27720;51.992;5.890;2023-07-24T12:33:24;3.25;;;2.13;;
41556;SDS011;27720;51.992;5.890;2023-07-24T12:35:50;6.70;;;3.60;;
41556;SDS011;27720;51.992;5.890;2023-07-24T12:38:16;6.05;;;2.30;;
41556;SDS011;27720;51.992;5.890;2023-07-24T12:40:42;8.90;;;3.15;;
41556;SDS011;27720;51.992;5.890;2023-07-24T12:43:09;6.43;;;2.10;;
41556;SDS011;27720;51.992;5.890;2023-07-24T12:45:35;3.05;;;2.15;;
41556;SDS011;27720;51.992;5.890;2023-07-24T12:48:00;4.90;;;2.47;;
41556;SDS011;27720;51.992;5.890;2023-07-24T12:50:26;4.90;;;2.55;;
41556;SDS011;27720;51.992;5.890;2023-07-24T12:52:52;3.25;;;1.92;;
41556;SDS011;27720;51.992;5.890;2023-07-24T12:55:17;4.65;;;2.70;;
41556;SDS011;27720;51.992;5.890;2023-07-24T12:57:43;3.80;;;1.98;;
41556;SDS011;27720;51.992;5.890;2023-07-24T13:00:09;4.40;;;1.80;;
41556;SDS011;27720;51.992;5.890;2023-07-24T13:02:35;3.13;;;1.88;;
41556;SDS011;27720;51.992;5.890;2023-07-24T13:05:01;3.97;;;2.42;;
41556;SDS011;27720;51.992;5.890;2023-07-24T13:07:26;5.15;;;1.75;;
41556;SDS011;27720;51.992;5.890;2023-07-24T13:09:54;3.72;;;1.60;;
41556;SDS011;27720;51.992;5.890;2023-07-24T13:12:19;2.08;;;1.35;;
41556;SDS011;27720;51.992;5.890;2023-07-24T13:14:45;2.97;;;1.08;;
41556;SDS011;27720;51.992;5.890;2023-07-24T13:17:11;2.83;;;1.58;;
41556;SDS011;27720;51.992;5.890;2023-07-24T13:19:37;4.15;;;1.67;;
41556;SDS011;27720;51.992;5.890;2023-07-24T13:22:03;2.40;;;1.45;;
41556;SDS011;27720;51.992;5.890;2023-07-24T13:24:29;4.70;;;1.70;;
41556;SDS011;27720;51.992;5.890;2023-07-24T13:26:55;3.00;;;1.30;;
41556;SDS011;27720;51.992;5.890;2023-07-24T13:29:20;3.17;;;1.52;;
41556;SDS011;27720;51.992;5.890;2023-07-24T13:31:46;2.92;;;1.50;;
41556;SDS011;27720;51.992;5.890;2023-07-24T13:34:12;3.22;;;1.70;;
41556;SDS011;27720;51.992;5.890;2023-07-24T13:36:37;3.28;;;1.70;;
41556;SDS011;27720;51.992;5.890;2023-07-24T13:39:03;4.35;;;1.85;;
41556;SDS011;27720;51.992;5.890;2023-07-24T13:41:29;2.92;;;1.42;;
41556;SDS011;27720;51.992;5.890;2023-07-24T13:43:55;3.35;;;1.35;;
41556;SDS011;27720;51.992;5.890;2023-07-24T13:46:21;1.75;;;1.35;;
41556;SDS011;27720;51.992;5.890;2023-07-24T13:48:46;3.40;;;1.58;;
41556;SDS011;27720;51.992;5.890;2023-07-24T13:51:12;3.15;;;1.60;;
41556;SDS011;27720;51.992;5.890;2023-07-24T13:53:38;4.43;;;1.80;;
41556;SDS011;27720;51.992;5.890;2023-07-24T13:56:03;4.57;;;1.92;;
41556;SDS011;27720;51.992;5.890;2023-07-24T13:58:29;2.58;;;1.65;;
41556;SDS011;27720;51.992;5.890;2023-07-24T14:00:55;3.35;;;1.65;;
41556;SDS011;27720;51.992;5.890;2023-07-24T14:03:21;3.65;;;1.80;;
41556;SDS011;27720;51.992;5.890;2023-07-24T14:05:49;2.65;;;1.70;;
41556;SDS011;27720;51.992;5.890;2023-07-24T14:08:15;2.40;;;1.42;;
41556;SDS011;27720;51.992;5.890;2023-07-24T14:10:40;2.85;;;1.27;;
41556;SDS011;27720;51.992;5.890;2023-07-24T14:13:06;3.75;;;1.35;;
41556;SDS011;27720;51.992;5.890;2023-07-24T14:15:32;2.05;;;1.63;;
41556;SDS011;27720;51.992;5.890;2023-07-24T14:17:57;4.30;;;1.52;;
41556;SDS011;27720;51.992;5.890;2023-07-24T14:20:23;4.28;;;1.55;;
41556;SDS011;27720;51.992;5.890;2023-07-24T14:22:49;3.67;;;1.90;;
41556;SDS011;27720;51.992;5.890;2023-07-24T14:25:15;3.13;;;1.60;;
41556;SDS011;27720;51.992;5.890;2023-07-24T14:27:40;2.83;;;1.67;;
41556;SDS011;27720;51.992;5.890;2023-07-24T14:30:08;8.32;;;3.10;;
41556;SDS011;27720;51.992;5.890;2023-07-24T14:32:34;6.20;;;2.47;;
41556;SDS011;27720;51.992;5.890;2023-07-24T14:35:00;7.55;;;2.55;;
41556;SDS011;27720;51.992;5.890;2023-07-24T14:37:26;3.95;;;2.40;;
41556;SDS011;27720;51.992;5.890;2023-07-24T14:39:51;3.55;;;2.13;;
41556;SDS011;27720;51.992;5.890;2023-07-24T14:42:17;4.45;;;2.08;;
41556;SDS011;27720;51.992;5.890;2023-07-24T14:44:43;4.65;;;2.47;;
41556;SDS011;27720;51.992;5.890;2023-07-24T14:47:08;4.75;;;2.65;;
41556;SDS011;27720;51.992;5.890;2023-07-24T14:49:34;4.50;;;2.58;;
41556;SDS011;27720;51.992;5.890;2023-07-24T14:52:00;4.13;;;2.13;;
41556;SDS011;27720;51.992;5.890;2023-07-24T14:54:25;3.80;;;2.50;;
41556;SDS011;27720;51.992;5.890;2023-07-24T14:56:51;3.70;;;2.40;;
41556;SDS011;27720;51.992;5.890;2023-07-24T14:59:17;2.80;;;2.05;;
41556;SDS011;27720;51.992;5.890;2023-07-24T15:01:42;3.53;;;2.38;;
41556;SDS011;27720;51.992;5.890;2023-07-24T15:04:08;4.95;;;2.63;;
41556;SDS011;27720;51.992;5.890;2023-07-24T15:06:34;2.85;;;1.88;;
41556;SDS011;27720;51.992;5.890;2023-07-24T15:09:00;2.55;;;1.70;;
41556;SDS011;27720;51.992;5.890;2023-07-24T15:11:26;3.22;;;1.40;;
41556;SDS011;27720;51.992;5.890;2023-07-24T15:13:52;2.63;;;1.83;;
41556;SDS011;27720;51.992;5.890;2023-07-24T15:16:18;2.53;;;1.92;;
41556;SDS011;27720;51.992;5.890;2023-07-24T15:18:43;2.95;;;2.25;;
41556;SDS011;27720;51.992;5.890;2023-07-24T15:21:09;2.92;;;1.85;;
41556;SDS011;27720;51.992;5.890;2023-07-24T15:23:35;4.05;;;2.00;;
41556;SDS011;27720;51.992;5.890;2023-07-24T15:26:01;1.70;;;1.30;;
41556;SDS011;27720;51.992;5.890;2023-07-24T15:28:27;2.00;;;1.20;;
41556;SDS011;27720;51.992;5.890;2023-07-24T15:30:53;2.08;;;1.45;;
41556;SDS011;27720;51.992;5.890;2023-07-24T15:33:19;3.00;;;1.20;;
41556;SDS011;27720;51.992;5.890;2023-07-24T15:35:45;1.73;;;1.15;;
41556;SDS011;27720;51.992;5.890;2023-07-24T15:38:11;2.33;;;1.48;;
41556;SDS011;27720;51.992;5.890;2023-07-24T15:40:37;2.00;;;1.15;;
41556;SDS011;27720;51.992;5.890;2023-07-24T15:43:05;2.25;;;1.55;;
41556;SDS011;27720;51.992;5.890;2023-07-24T15:45:31;3.40;;;1.33;;
41556;SDS011;27720;51.992;5.890;2023-07-24T15:47:57;3.45;;;1.92;;
41556;SDS011;27720;51.992;5.890;2023-07-24T15:50:23;1.85;;;1.33;;
41556;SDS011;27720;51.992;5.890;2023-07-24T15:52:48;3.10;;;1.70;;
41556;SDS011;27720;51.992;5.890;2023-07-24T15:55:14;3.10;;;1.55;;
41556;SDS011;27720;51.992;5.890;2023-07-24T15:57:40;3.42;;;1.60;;
41556;SDS011;27720;51.992;5.890;2023-07-24T16:00:06;3.25;;;1.65;;
41556;SDS011;27720;51.992;5.890;2023-07-24T16:02:37;4.35;;;1.60;;
41556;SDS011;27720;51.992;5.890;2023-07-24T16:05:04;4.35;;;1.80;;
41556;SDS011;27720;51.992;5.890;2023-07-24T16:07:30;4.75;;;1.90;;
41556;SDS011;27720;51.992;5.890;2023-07-24T16:09:55;4.50;;;1.90;;
41556;SDS011;27720;51.992;5.890;2023-07-24T16:12:21;6.47;;;2.65;;
41556;SDS011;27720;51.992;5.890;2023-07-24T16:14:47;3.42;;;1.95;;
41556;SDS011;27720;51.992;5.890;2023-07-24T16:17:13;4.82;;;1.48;;
41556;SDS011;27720;51.992;5.890;2023-07-24T16:19:39;3.95;;;1.40;;
41556;SDS011;27720;51.992;5.890;2023-07-24T16:22:06;3.38;;;1.52;;
41556;SDS011;27720;51.992;5.890;2023-07-24T16:24:31;1.95;;;1.25;;
41556;SDS011;27720;51.992;5.890;2023-07-24T16:26:57;4.53;;;1.23;;
41556;SDS011;27720;51.992;5.890;2023-07-24T16:29:23;2.00;;;1.10;;
41556;SDS011;27720;51.992;5.890;2023-07-24T16:31:49;2.40;;;0.98;;
41556;SDS011;27720;51.992;5.890;2023-07-24T16:34:14;3.08;;;1.00;;
41556;SDS011;27720;51.992;5.890;2023-07-24T16:36:40;1.92;;;0.90;;
41556;SDS011;27720;51.992;5.890;2023-07-24T16:39:06;3.00;;;1.05;;
41556;SDS011;27720;51.992;5.890;2023-07-24T16:41:32;2.03;;;0.98;;
41556;SDS011;27720;51.992;5.890;2023-07-24T16:43:58;3.17;;;1.02;;
41556;SDS011;27720;51.992;5.890;2023-07-24T16:46:24;1.05;;;0.70;;
41556;SDS011;27720;51.992;5.890;2023-07-24T16:48:49;1.77;;;0.75;;
41556;SDS011;27720;51.992;5.890;2023-07-24T16:51:16;0.90;;;0.60;;
41556;SDS011;27720;51.992;5.890;2023-07-24T16:53:42;1.73;;;0.70;;
41556;SDS011;27720;51.992;5.890;2023-07-24T16:56:08;1.45;;;0.60;;
41556;SDS011;27720;51.992;5.890;2023-07-24T16:58:34;1.42;;;0.60;;
41556;SDS011;27720;51.992;5.890;2023-07-24T17:01:00;2.17;;;0.65;;
41556;SDS011;27720;51.992;5.890;2023-07-24T17:03:27;1.70;;;0.70;;
41556;SDS011;27720;51.992;5.890;2023-07-24T17:05:53;0.85;;;0.50;;
41556;SDS011;27720;51.992;5.890;2023-07-24T17:08:19;2.53;;;0.57;;
41556;SDS011;27720;51.992;5.890;2023-07-24T17:10:46;2.40;;;0.50;;
41556;SDS011;27720;51.992;5.890;2023-07-24T17:13:13;0.88;;;0.75;;
41556;SDS011;27720;51.992;5.890;2023-07-24T17:15:39;2.25;;;0.60;;
41556;SDS011;27720;51.992;5.890;2023-07-24T17:18:06;2.33;;;0.60;;
41556;SDS011;27720;51.992;5.890;2023-07-24T17:20:32;2.28;;;0.30;;
41556;SDS011;27720;51.992;5.890;2023-07-24T17:22:58;0.82;;;0.40;;
41556;SDS011;27720;51.992;5.890;2023-07-24T17:25:23;1.45;;;0.30;;
41556;SDS011;27720;51.992;5.890;2023-07-24T17:27:49;1.10;;;0.40;;
41556;SDS011;27720;51.992;5.890;2023-07-24T17:30:16;1.27;;;0.40;;
41556;SDS011;27720;51.992;5.890;2023-07-24T17:32:42;0.70;;;0.40;;
41556;SDS011;27720;51.992;5.890;2023-07-24T17:35:10;4.45;;;1.00;;
41556;SDS011;27720;51.992;5.890;2023-07-24T17:37:36;1.75;;;0.47;;
41556;SDS011;27720;51.992;5.890;2023-07-24T17:40:02;1.13;;;0.35;;
41556;SDS011;27720;51.992;5.890;2023-07-24T17:42:29;1.42;;;0.40;;
41556;SDS011;27720;51.992;5.890;2023-07-24T17:44:56;1.00;;;0.40;;
41556;SDS011;27720;51.992;5.890;2023-07-24T17:47:22;0.63;;;0.40;;
41556;SDS011;27720;51.992;5.890;2023-07-24T17:49:47;1.35;;;0.40;;
41556;SDS011;27720;51.992;5.890;2023-07-24T17:52:13;1.60;;;0.40;;
41556;SDS011;27720;51.992;5.890;2023-07-24T17:54:40;0.63;;;0.38;;
41556;SDS011;27720;51.992;5.890;2023-07-24T17:57:10;1.40;;;0.40;;
41556;SDS011;27720;51.992;5.890;2023-07-24T17:59:36;1.40;;;0.40;;
41556;SDS011;27720;51.992;5.890;2023-07-24T18:02:03;0.68;;;0.40;;
41556;SDS011;27720;51.992;5.890;2023-07-24T18:04:30;0.73;;;0.38;;
41556;SDS011;27720;51.992;5.890;2023-07-24T18:06:56;3.10;;;0.40;;
41556;SDS011;27720;51.992;5.890;2023-07-24T18:09:23;1.15;;;0.43;;
41556;SDS011;27720;51.992;5.890;2023-07-24T18:11:49;0.47;;;0.20;;
41556;SDS011;27720;51.992;5.890;2023-07-24T18:14:15;1.52;;;0.30;;
41556;SDS011;27720;51.992;5.890;2023-07-24T18:16:44;1.98;;;0.43;;
41556;SDS011;27720;51.992;5.890;2023-07-24T18:19:10;0.70;;;0.30;;
41556;SDS011;27720;51.992;5.890;2023-07-24T18:21:36;0.68;;;0.40;;
41556;SDS011;27720;51.992;5.890;2023-07-24T18:24:02;1.80;;;0.50;;
41556;SDS011;27720;51.992;5.890;2023-07-24T18:26:33;0.40;;;0.38;;
41556;SDS011;27720;51.992;5.890;2023-07-24T18:29:00;0.77;;;0.40;;
41556;SDS011;27720;51.992;5.890;2023-07-24T18:31:26;0.85;;;0.50;;
41556;SDS011;27720;51.992;5.890;2023-07-24T18:33:53;1.77;;;0.50;;
41556;SDS011;27720;51.992;5.890;2023-07-24T18:36:18;2.83;;;0.70;;
41556;SDS011;27720;51.992;5.890;2023-07-24T18:38:47;0.75;;;0.40;;
41556;SDS011;27720;51.992;5.890;2023-07-24T18:41:13;1.25;;;0.47;;
41556;SDS011;27720;51.992;5.890;2023-07-24T18:43:39;1.92;;;0.47;;
41556;SDS011;27720;51.992;5.890;2023-07-24T18:46:05;1.40;;;0.47;;